Main page
METAR-TAF:

METAR-TAF

Airports :

Tekamah Municipal Airport

Tekamah, Nebraska, United States

latitude: 41-46-01N, longitude: 096-10-40W, elevation: 1027 ft

Current weather observation

The report was made 26 minutes ago, at 22:54 UTC
Wind 28 mph from the South/Southwest with gusts up to 37 mph
Temperature 95°F
Humidity 32%
Pressure 29.81 in. Hg
Visibility: 10 miles
Clear sky

METAR: KTQE 012254Z AUTO 20024G32KT 10SM CLR 35/16 A2981 RMK AO2 PK WND 20034/2217 SLP079 T03500156

Time: 18:20 (23:20 UTC)


TAF: missing

Weather observations and forecasts of more than 4000 airports (METAR and TAF reports).

The available stations are represented by yellow and red dots on the map.

Hover mouse over dot to see the name of the station.

Then click to see weather observations and forecasts.

To change the map : click on the green buttons with a black cross to zoom in, on the green button with a dash to zoom out, or on the green arrows for adjacent maps.


METAR-TAF: